모두
Fertile Muni Airport (Fertile, MN) D14 기상
There is no TAF data available at D14 or any nearby airports.
There is no METAR data available at D14. Showing METAR data for KFSE (24 mi E).
최근 FSE METAR 이력(D14에 대한 데이터 없음)
| Date | Time (CDT) | Flight Rules | Wind Dir. | Speed | Type | Height AGL (ft) | Visibility | Temp (°C) | Temp (°F) | Dew Point (°C) | Dew Point (°F) | Rel. Humid. | Pressure | Density Altitude | Remarks |
|---|---|---|---|---|---|---|---|---|---|---|---|---|---|---|---|
| 02-5월 | 22:35 | VFR | 40° | 8 kt | 10 miles | 9° | 48° | 3° | 37° | 66% | 29.74 in Hg | 976 ft | |||
| 02-5월 | 22:15 | VFR | 50° | 12 kt | 10 miles | 9° | 48° | 3° | 37° | 66% | 29.74 in Hg | 976 ft | Wind gusting to 17 KT | ||
| 02-5월 | 21:55 | VFR | 30° | 13 kt | 10 miles | 10° | 50° | 3° | 37° | 62% | 29.73 in Hg | 1,106 ft | Wind gusting to 16 KT | ||
| 02-5월 | 21:35 | VFR | 40° | 10 kt | 10 miles | 10° | 50° | 3° | 37° | 62% | 29.72 in Hg | 1,116 ft | Wind gusting to 15 KT | ||
| 02-5월 | 21:15 | VFR | 40° | 10 kt | 10 miles | 11° | 51° | 0° | 32° | 47% | 29.70 in Hg | 1,256 ft | |||
| 02-5월 | 20:55 | VFR | 110° | 4 kt | 10 miles | 12° | 53° | 0° | 32° | 44% | 29.69 in Hg | 1,386 ft | |||
| 02-5월 | 20:35 | VFR | 100° | 5 kt | 10 miles | 13° | 55° | 0° | 32° | 41% | 29.70 in Hg | 1,496 ft | |||
| 02-5월 | 20:15 | VFR | 90° | 3 kt | 10 miles | 14° | 57° | 0° | 32° | 38% | 29.70 in Hg | 1,616 ft | |||
| 02-5월 | 19:55 | VFR | 110° | 4 kt | 10 miles | 15° | 59° | -1° | 30° | 33% | 29.69 in Hg | 1,746 ft | |||
| 02-5월 | 19:35 | VFR | 150° | 5 kt | 10 miles | 16° | 60° | -2° | 28° | 29% | 29.71 in Hg | 1,846 ft | |||
| 02-5월 | 19:15 | VFR | 170° | 6 kt | 10 miles | 17° | 62° | -1° | 30° | 29% | 29.71 in Hg | 1,966 ft | |||
| 02-5월 | 18:55 | VFR | 180° | 6 kt | 10 miles | 17° | 62° | -2° | 28° | 27% | 29.71 in Hg | 1,966 ft | |||
| 02-5월 | 18:15 | VFR | 180° | 6 kt | 10 miles | 17° | 62° | -1° | 30° | 29% | 29.73 in Hg | 1,946 ft | |||
| 02-5월 | 17:55 | VFR | 210° | 7 kt | 10 miles | 17° | 62° | -1° | 30° | 29% | 29.74 in Hg | 1,936 ft | |||
| 02-5월 | 17:35 | VFR | 220° | 10 kt | 10 miles | 17° | 62° | -1° | 30° | 29% | 29.74 in Hg | 1,936 ft | |||
| 02-5월 | 17:15 | VFR | 210° | 4 kt | 10 miles | 16° | 60° | -1° | 30° | 31% | 29.75 in Hg | 1,806 ft | |||
| 02-5월 | 16:55 | VFR | 240° | 7 kt | 10 miles | 16° | 60° | -1° | 30° | 31% | 29.76 in Hg | 1,796 ft | |||
| 02-5월 | 16:35 | VFR | 260° | 8 kt | 10 miles | 16° | 60° | -2° | 28° | 29% | 29.77 in Hg | 1,786 ft | |||
| 02-5월 | 16:15 | VFR | 200° | 5 kt | 10 miles | 17° | 62° | -2° | 28° | 27% | 29.77 in Hg | 1,906 ft | |||
| 02-5월 | 15:55 | VFR | 210° | 7 kt | 10 miles | 17° | 62° | -2° | 28° | 27% | 29.78 in Hg | 1,896 ft | |||
| 02-5월 | 15:15 | VFR | Calm | 10 miles | 15° | 59° | -2° | 28° | 31% | 29.80 in Hg | 1,636 ft | ||||
| 02-5월 | 14:55 | VFR | 270° | 14 kt | 10 miles | 17° | 62° | -3° | 26° | 25% | 29.81 in Hg | 1,866 ft | Wind gusting to 25 KT | ||
| 02-5월 | 14:35 | VFR | 250° | 12 kt | 10 miles | 18° | 64° | -2° | 28° | 26% | 29.81 in Hg | 1,986 ft | Wind gusting to 19 KT | ||
| 02-5월 | 14:15 | VFR | 220° | 11 kt | 10 miles | 18° | 64° | -1° | 30° | 28% | 29.82 in Hg | 1,976 ft |
로그인
| 귀하의 브라우저는 지원되지 않습니다.. 브라우저를 업그레이드하세요 |
